createdAt,value
2018-05-29T00:02:24.471Z,71.40
2018-05-29T00:04:52.784Z,71.80
2018-05-29T00:07:22.064Z,72.20
2018-05-29T00:09:50.355Z,72.20
2018-05-29T00:12:18.687Z,71.80
2018-05-29T00:14:47.757Z,71.80
2018-05-29T00:17:16.031Z,71.80
2018-05-29T00:19:44.315Z,72.00
2018-05-29T00:22:12.618Z,72.20
2018-05-29T00:24:40.905Z,72.40
2018-05-29T00:27:09.174Z,72.60
2018-05-29T00:29:37.478Z,72.90
2018-05-29T00:32:05.756Z,73.00
2018-05-29T00:34:34.024Z,73.10
2018-05-29T00:37:02.329Z,72.80
2018-05-29T00:39:30.597Z,73.00
2018-05-29T00:41:58.899Z,73.00
2018-05-29T00:44:27.205Z,73.10
2018-05-29T00:46:55.536Z,73.40
2018-05-29T00:49:24.579Z,74.40
2018-05-29T00:51:52.918Z,73.70
2018-05-29T00:54:21.223Z,73.90
2018-05-29T00:56:50.324Z,74.10
2018-05-29T00:59:19.381Z,74.00
2018-05-29T01:01:47.674Z,73.90
2018-05-29T01:04:15.948Z,74.10
2018-05-29T01:06:44.212Z,74.00
2018-05-29T01:09:13.270Z,73.50
2018-05-29T01:11:41.554Z,73.50
2018-05-29T01:14:09.873Z,73.40
2018-05-29T01:16:38.185Z,73.40
2018-05-29T01:19:07.245Z,73.60
2018-05-29T01:21:35.556Z,73.60
2018-05-29T01:24:03.867Z,73.80
2018-05-29T01:26:32.910Z,73.70
2018-05-29T01:29:01.216Z,73.60
2018-05-29T01:31:29.498Z,73.80
2018-05-29T01:33:57.771Z,73.80
2018-05-29T01:36:26.075Z,74.00
2018-05-29T01:38:54.393Z,74.00
2018-05-29T01:41:22.705Z,73.70
2018-05-29T01:43:51.834Z,73.70
2018-05-29T01:46:20.532Z,73.60
2018-05-29T01:48:48.822Z,73.90
2018-05-29T01:51:17.104Z,74.10
2018-05-29T01:53:45.698Z,74.10
2018-05-29T01:56:13.979Z,74.10
2018-05-29T01:58:42.276Z,74.10
2018-05-29T02:01:10.608Z,74.10
2018-05-29T02:03:38.943Z,74.50
2018-05-29T02:06:08.018Z,74.80
2018-05-29T02:08:36.289Z,74.80
2018-05-29T02:11:04.563Z,75.00
2018-05-29T02:13:32.856Z,75.00
2018-05-29T02:16:01.132Z,75.20
2018-05-29T02:18:29.442Z,75.20
2018-05-29T02:20:57.733Z,75.00
2018-05-29T02:23:26.027Z,75.00
2018-05-29T02:25:54.375Z,75.50
2018-05-29T02:28:22.714Z,75.60
2018-05-29T02:30:50.990Z,75.90
2018-05-29T02:33:19.329Z,75.80
2018-05-29T02:35:47.624Z,75.90
2018-05-29T02:38:15.917Z,75.70
2018-05-29T02:40:44.186Z,75.70
2018-05-29T02:43:13.259Z,75.40
2018-05-29T02:45:41.540Z,75.40
2018-05-29T02:48:09.818Z,75.60
2018-05-29T02:50:38.102Z,75.60
2018-05-29T02:53:06.386Z,75.90
2018-05-29T02:55:35.444Z,76.60
2018-05-29T02:58:04.487Z,76.00
2018-05-29T03:00:32.798Z,75.80
2018-05-29T03:03:01.071Z,76.50
2018-05-29T03:05:29.364Z,75.90
2018-05-29T03:07:57.680Z,76.30
2018-05-29T03:10:25.937Z,76.30
2018-05-29T03:12:54.224Z,76.30
2018-05-29T03:15:22.503Z,76.20
2018-05-29T03:17:50.810Z,76.20
2018-05-29T03:20:19.114Z,76.00
2018-05-29T03:22:47.376Z,76.20
2018-05-29T03:25:15.644Z,76.60
2018-05-29T03:27:43.926Z,76.50
2018-05-29T03:30:12.215Z,76.20
2018-05-29T03:32:40.500Z,75.70
2018-05-29T03:35:08.791Z,75.70
2018-05-29T03:37:37.068Z,75.70
2018-05-29T03:40:06.710Z,75.90
2018-05-29T03:42:35.034Z,75.70
2018-05-29T03:45:03.311Z,76.00
2018-05-29T03:47:31.640Z,75.90
2018-05-29T03:50:00.703Z,76.10
2018-05-29T03:52:29.031Z,76.10
2018-05-29T03:54:57.313Z,76.80
2018-05-29T03:57:25.591Z,76.20
2018-05-29T03:59:54.047Z,76.10
2018-05-29T04:02:22.361Z,75.50
2018-05-29T04:04:50.646Z,75.60
2018-05-29T04:07:18.946Z,76.50
2018-05-29T04:09:48.412Z,75.70
2018-05-29T04:12:17.015Z,75.30
2018-05-29T04:14:45.293Z,75.60
2018-05-29T04:17:13.572Z,75.80
2018-05-29T04:19:42.628Z,75.80
2018-05-29T04:22:10.915Z,75.80
2018-05-29T04:24:39.202Z,75.80
2018-05-29T04:27:07.495Z,75.60
2018-05-29T04:29:36.523Z,74.70
2018-05-29T04:32:04.843Z,74.60
2018-05-29T04:34:33.110Z,74.80
2018-05-29T04:37:02.148Z,74.20
2018-05-29T04:39:30.428Z,74.10
2018-05-29T04:41:58.695Z,74.20
2018-05-29T04:44:27.743Z,74.80
2018-05-29T04:46:56.017Z,74.70
2018-05-29T04:49:24.293Z,74.80
2018-05-29T04:51:52.687Z,74.80
2018-05-29T04:54:20.970Z,74.80
2018-05-29T04:56:49.259Z,74.80
2018-05-29T04:59:18.270Z,74.90
2018-05-29T05:01:46.677Z,74.90
2018-05-29T05:04:14.949Z,74.40
2018-05-29T05:06:43.216Z,74.90
2018-05-29T05:09:12.410Z,74.40
2018-05-29T05:11:40.702Z,74.40
2018-05-29T05:14:09.732Z,75.90
2018-05-29T05:16:38.038Z,75.30
2018-05-29T05:19:06.314Z,75.10
2018-05-29T05:21:34.621Z,75.10
2018-05-29T05:24:02.884Z,73.30
2018-05-29T05:26:31.163Z,73.20
2018-05-29T05:28:59.432Z,73.10
2018-05-29T05:31:27.702Z,72.60
2018-05-29T05:33:55.983Z,72.20
2018-05-29T05:36:24.276Z,72.40
2018-05-29T05:38:52.575Z,72.20
2018-05-29T05:41:20.883Z,70.70
2018-05-29T05:43:49.929Z,69.90
2018-05-29T05:46:18.220Z,69.70
2018-05-29T05:48:46.502Z,69.70
2018-05-29T05:51:14.807Z,70.00
2018-05-29T05:53:43.091Z,69.10
2018-05-29T05:56:11.391Z,68.20
2018-05-29T05:58:39.678Z,67.80
2018-05-29T06:01:09.019Z,66.70
2018-05-29T06:03:37.293Z,66.60
2018-05-29T06:06:05.566Z,65.40
2018-05-29T06:08:34.083Z,66.00
2018-05-29T06:11:02.366Z,64.90
2018-05-29T06:13:30.658Z,64.90
2018-05-29T06:15:58.930Z,65.40
2018-05-29T06:18:27.212Z,64.80
2018-05-29T06:20:55.513Z,63.00
2018-05-29T06:23:23.860Z,62.80
2018-05-29T06:25:52.173Z,63.00
2018-05-29T06:28:20.490Z,61.20
2018-05-29T06:30:48.790Z,60.50
2018-05-29T06:33:17.838Z,60.50
2018-05-29T06:35:46.132Z,60.60
2018-05-29T06:38:14.460Z,60.20
2018-05-29T06:40:42.752Z,60.80
2018-05-29T06:43:11.022Z,61.20
2018-05-29T06:45:39.314Z,61.20
2018-05-29T06:48:07.607Z,60.60
2018-05-29T06:50:35.884Z,60.90
2018-05-29T06:53:04.962Z,60.70
2018-05-29T06:55:33.253Z,60.80
2018-05-29T06:58:01.534Z,59.90
2018-05-29T07:00:29.803Z,58.90
2018-05-29T07:02:58.079Z,57.20
2018-05-29T07:05:27.138Z,58.10
2018-05-29T07:07:55.421Z,57.90
2018-05-29T07:10:23.861Z,57.50
2018-05-29T07:12:52.142Z,57.50
2018-05-29T07:15:21.208Z,58.30
2018-05-29T07:17:49.521Z,58.90
2018-05-29T07:20:18.555Z,56.40
2018-05-29T07:22:47.598Z,56.60
2018-05-29T07:25:15.869Z,56.50
2018-05-29T07:27:44.147Z,56.30
2018-05-29T07:30:12.434Z,56.60
2018-05-29T07:32:40.699Z,55.80
2018-05-29T07:35:08.961Z,55.00
2018-05-29T07:37:37.251Z,55.50
2018-05-29T07:40:05.522Z,56.10
2018-05-29T07:42:33.805Z,57.20
2018-05-29T07:45:02.089Z,56.50
2018-05-29T07:47:30.386Z,56.00
2018-05-29T07:49:59.738Z,55.30
2018-05-29T07:52:28.063Z,55.20
2018-05-29T07:54:56.344Z,56.00
2018-05-29T07:57:24.684Z,55.60
2018-05-29T07:59:52.967Z,55.30
2018-05-29T08:02:21.283Z,55.80
2018-05-29T08:04:50.376Z,55.40
2018-05-29T08:07:18.660Z,55.40
2018-05-29T08:09:46.960Z,55.70
2018-05-29T08:12:15.226Z,55.60
2018-05-29T08:14:43.518Z,55.30
2018-05-29T08:17:11.795Z,55.80
2018-05-29T08:19:40.352Z,56.50
2018-05-29T08:22:08.643Z,56.70
2018-05-29T08:24:36.959Z,57.40
2018-05-29T08:27:05.236Z,57.40
2018-05-29T08:29:33.534Z,58.00
2018-05-29T08:32:01.815Z,58.90
2018-05-29T08:34:30.158Z,59.10
2018-05-29T08:36:59.206Z,59.70
2018-05-29T08:39:27.555Z,59.70
2018-05-29T08:41:55.793Z,56.80
2018-05-29T08:44:24.073Z,56.50
2018-05-29T08:46:52.393Z,55.40
2018-05-29T08:49:21.490Z,52.60
2018-05-29T08:51:49.794Z,52.50
2018-05-29T08:54:18.070Z,52.20
2018-05-29T08:56:46.386Z,53.00
2018-05-29T08:59:14.646Z,53.80
2018-05-29T09:01:42.961Z,53.60
2018-05-29T09:04:12.034Z,56.50
2018-05-29T09:06:40.373Z,56.40
2018-05-29T09:09:09.448Z,57.20
2018-05-29T09:11:37.852Z,57.20
2018-05-29T09:14:06.130Z,56.70
2018-05-29T09:16:34.410Z,54.30
2018-05-29T09:19:02.730Z,54.30
2018-05-29T09:21:31.790Z,54.20
2018-05-29T09:24:00.612Z,54.10
2018-05-29T09:26:28.901Z,56.00
2018-05-29T09:28:57.186Z,54.60
2018-05-29T09:31:25.486Z,55.90
2018-05-29T09:33:53.780Z,53.50
2018-05-29T09:36:22.111Z,54.80
2018-05-29T09:38:50.416Z,53.30
2018-05-29T09:41:18.707Z,54.00
2018-05-29T09:43:47.024Z,53.90
2018-05-29T09:46:15.318Z,54.40
2018-05-29T09:48:43.591Z,51.10
2018-05-29T09:51:11.894Z,51.60
2018-05-29T09:53:40.186Z,51.80
2018-05-29T09:56:08.459Z,54.40
2018-05-29T09:58:36.757Z,53.00
2018-05-29T10:01:05.061Z,52.70
2018-05-29T10:03:34.102Z,53.50
2018-05-29T10:06:02.482Z,53.40
2018-05-29T10:08:30.748Z,54.80
2018-05-29T10:10:59.806Z,56.10
2018-05-29T10:13:28.089Z,56.10
2018-05-29T10:15:56.366Z,55.00
2018-05-29T10:18:24.668Z,55.00
2018-05-29T10:20:52.960Z,54.40
2018-05-29T10:23:21.314Z,55.20
2018-05-29T10:25:49.568Z,55.40
2018-05-29T10:28:18.626Z,54.20
2018-05-29T10:30:46.921Z,54.10
2018-05-29T10:33:15.214Z,56.00
2018-05-29T10:35:43.516Z,57.30
2018-05-29T10:38:11.817Z,56.80
2018-05-29T10:40:40.107Z,57.10
2018-05-29T10:43:08.401Z,52.50
2018-05-29T10:45:36.697Z,53.40
2018-05-29T10:48:04.976Z,54.50
2018-05-29T10:50:33.280Z,53.90
2018-05-29T10:53:02.330Z,54.20
2018-05-29T10:55:30.614Z,54.00
2018-05-29T10:57:58.889Z,55.30
2018-05-29T11:00:27.163Z,53.90
2018-05-29T11:02:56.199Z,54.00
2018-05-29T11:05:24.542Z,54.00
2018-05-29T11:07:52.813Z,54.70
2018-05-29T11:10:21.095Z,53.30
2018-05-29T11:12:49.386Z,55.80
2018-05-29T11:15:17.674Z,53.20
2018-05-29T11:17:45.951Z,52.20
2018-05-29T11:20:14.252Z,52.00
2018-05-29T11:22:42.541Z,55.00
2018-05-29T11:25:10.832Z,54.00
2018-05-29T11:27:39.125Z,54.60
2018-05-29T11:30:07.411Z,53.40
2018-05-29T11:32:35.702Z,54.80
2018-05-29T11:35:03.983Z,53.50
2018-05-29T11:37:32.271Z,54.40
2018-05-29T11:40:00.917Z,51.70
2018-05-29T11:42:29.215Z,52.60
2018-05-29T11:44:57.491Z,54.60
2018-05-29T11:47:25.793Z,54.80
2018-05-29T11:49:54.074Z,52.10
2018-05-29T11:52:22.384Z,51.80
2018-05-29T11:54:50.748Z,52.70
2018-05-29T11:57:19.902Z,55.70
2018-05-29T11:59:48.267Z,55.70
2018-05-29T12:02:16.540Z,54.20
2018-05-29T12:04:44.824Z,53.10
2018-05-29T12:07:13.100Z,52.70
2018-05-29T12:09:41.433Z,53.90
2018-05-29T12:12:34.347Z,53.00
2018-05-29T12:15:03.402Z,53.50
2018-05-29T12:17:31.730Z,53.50
2018-05-29T12:20:00.789Z,53.40
2018-05-29T12:22:29.059Z,53.30
2018-05-29T12:24:57.354Z,53.90
2018-05-29T12:27:25.622Z,54.30
2018-05-29T12:29:53.901Z,53.90
2018-05-29T12:32:22.993Z,52.60
2018-05-29T12:34:52.080Z,53.00
2018-05-29T12:37:20.424Z,52.90
2018-05-29T12:39:48.737Z,53.70
2018-05-29T12:42:17.037Z,51.50
2018-05-29T12:44:46.080Z,52.90
2018-05-29T12:47:15.217Z,51.40
2018-05-29T12:49:43.493Z,51.30
2018-05-29T12:52:11.783Z,51.50
2018-05-29T12:54:40.048Z,51.20
2018-05-29T12:57:09.371Z,52.00
2018-05-29T12:59:37.658Z,52.00
2018-05-29T13:02:06.704Z,50.30
2018-05-29T13:04:34.988Z,50.30
2018-05-29T13:07:03.312Z,49.90
2018-05-29T13:09:31.616Z,49.40
2018-05-29T13:12:00.174Z,50.80
2018-05-29T13:14:28.468Z,53.00
2018-05-29T13:16:56.877Z,52.80
2018-05-29T13:19:25.184Z,51.00
2018-05-29T13:21:54.243Z,51.30
2018-05-29T13:24:22.565Z,51.20
2018-05-29T13:26:50.882Z,50.00
2018-05-29T13:29:19.225Z,50.10
2018-05-29T13:31:47.500Z,48.50
2018-05-29T13:34:15.821Z,49.10
2018-05-29T13:36:44.109Z,48.30
2018-05-29T13:39:12.763Z,49.20
2018-05-29T13:41:41.037Z,48.90
2018-05-29T13:44:09.339Z,49.30
2018-05-29T13:46:37.643Z,51.70
2018-05-29T13:49:05.918Z,49.70
2018-05-29T13:51:34.198Z,51.00
2018-05-29T13:54:02.502Z,51.30
2018-05-29T13:56:31.009Z,51.40
2018-05-29T13:58:59.274Z,52.10
2018-05-29T14:01:27.570Z,52.80
2018-05-29T14:03:55.869Z,51.50
2018-05-29T14:06:25.386Z,53.40
2018-05-29T14:08:53.705Z,53.40
2018-05-29T14:11:21.985Z,51.60
2018-05-29T14:13:50.366Z,50.10
2018-05-29T14:16:18.643Z,50.10
2018-05-29T14:18:46.925Z,50.10
2018-05-29T14:21:15.236Z,52.50
2018-05-29T14:23:43.534Z,51.10
2018-05-29T14:26:11.831Z,51.40
2018-05-29T14:28:40.881Z,50.10
2018-05-29T14:31:09.161Z,50.10
2018-05-29T14:33:37.445Z,49.50
2018-05-29T14:36:05.722Z,50.30
2018-05-29T14:38:34.024Z,51.30
2018-05-29T14:41:02.322Z,50.60
2018-05-29T14:43:30.619Z,48.90
2018-05-29T14:45:58.905Z,50.40
2018-05-29T14:48:27.179Z,51.60
2018-05-29T14:50:55.584Z,51.70
2018-05-29T14:53:23.923Z,50.60
2018-05-29T14:55:52.231Z,47.40
2018-05-29T14:58:20.594Z,48.70
2018-05-29T15:00:49.719Z,49.30
2018-05-29T15:03:18.014Z,49.00
2018-05-29T15:05:46.447Z,47.70
2018-05-29T15:08:14.741Z,48.10
2018-05-29T15:10:43.032Z,49.00
2018-05-29T15:13:11.339Z,49.50
2018-05-29T15:15:39.613Z,49.90
2018-05-29T15:18:07.888Z,51.30
2018-05-29T15:20:36.226Z,49.50
2018-05-29T15:23:05.536Z,50.30
2018-05-29T15:25:34.566Z,50.50
2018-05-29T15:28:03.083Z,50.50
2018-05-29T15:30:31.383Z,49.00
2018-05-29T15:32:59.750Z,49.60
2018-05-29T15:35:28.049Z,50.20
2018-05-29T15:37:56.357Z,50.00
2018-05-29T15:40:24.690Z,50.70
2018-05-29T15:42:52.970Z,49.30
2018-05-29T15:45:22.030Z,49.50
2018-05-29T15:47:50.315Z,49.40
2018-05-29T15:50:18.651Z,49.80
2018-05-29T15:52:47.713Z,50.70
2018-05-29T15:55:16.014Z,50.60
2018-05-29T15:57:44.306Z,50.20
2018-05-29T16:00:12.609Z,50.00
2018-05-29T16:02:41.660Z,50.60
2018-05-29T16:05:09.960Z,50.50
2018-05-29T16:07:38.231Z,51.40
2018-05-29T16:10:06.531Z,51.70
2018-05-29T16:12:34.807Z,52.00
2018-05-29T16:15:03.114Z,53.10
2018-05-29T16:17:31.392Z,51.80
2018-05-29T16:19:59.694Z,51.50
2018-05-29T16:22:27.972Z,51.10
2018-05-29T16:24:56.274Z,50.60
2018-05-29T16:27:24.569Z,50.80
2018-05-29T16:29:52.987Z,51.00
2018-05-29T16:32:22.038Z,51.60
2018-05-29T16:34:50.429Z,51.60
2018-05-29T16:37:18.743Z,50.90
2018-05-29T16:39:47.040Z,51.10
2018-05-29T16:42:15.486Z,52.30
2018-05-29T16:44:43.771Z,51.40
2018-05-29T16:47:12.108Z,51.30
2018-05-29T16:49:40.403Z,50.60
2018-05-29T16:52:08.693Z,50.70
2018-05-29T16:54:36.978Z,50.90
2018-05-29T16:57:05.979Z,51.00
2018-05-29T16:59:34.297Z,51.20
2018-05-29T17:02:02.823Z,52.20
2018-05-29T17:04:31.114Z,52.00
2018-05-29T17:06:59.395Z,52.10
2018-05-29T17:09:27.699Z,51.30
2018-05-29T17:11:56.002Z,51.80
2018-05-29T17:14:24.304Z,51.70
2018-05-29T17:16:52.626Z,52.00
2018-05-29T17:19:21.022Z,52.20
2018-05-29T17:21:49.370Z,52.20
2018-05-29T17:24:17.602Z,52.80
2018-05-29T17:26:45.880Z,51.80
2018-05-29T17:29:14.166Z,52.50
2018-05-29T17:31:42.487Z,52.40
2018-05-29T17:34:11.081Z,51.70
2018-05-29T17:36:39.362Z,51.90
2018-05-29T17:39:07.659Z,52.50
2018-05-29T17:41:35.942Z,53.00
2018-05-29T17:44:04.284Z,53.20
2018-05-29T17:46:32.546Z,53.90
2018-05-29T17:49:00.866Z,54.20
2018-05-29T17:51:29.507Z,54.60
2018-05-29T17:53:57.805Z,54.80
2018-05-29T17:56:26.146Z,54.90
2018-05-29T17:58:54.386Z,54.80
2018-05-29T18:01:22.656Z,55.00
2018-05-29T18:03:50.963Z,55.10
2018-05-29T18:06:19.232Z,55.10
2018-05-29T18:08:47.544Z,55.40
2018-05-29T18:11:15.830Z,55.50
2018-05-29T18:13:44.139Z,55.60
2018-05-29T18:16:12.538Z,55.60
2018-05-29T18:18:40.824Z,55.90
2018-05-29T18:21:09.100Z,56.00
2018-05-29T18:23:37.403Z,56.00
2018-05-29T18:26:05.732Z,56.20
2018-05-29T18:28:34.002Z,56.10
2018-05-29T18:31:03.413Z,56.30
2018-05-29T18:33:31.643Z,56.30
2018-05-29T18:35:59.978Z,56.40
2018-05-29T18:38:29.099Z,56.40
2018-05-29T18:40:57.325Z,56.40
2018-05-29T18:43:25.625Z,56.70
2018-05-29T18:45:54.050Z,56.30
2018-05-29T18:48:22.323Z,56.40
2018-05-29T18:50:50.603Z,56.70
2018-05-29T18:53:18.881Z,57.00
2018-05-29T18:55:47.163Z,57.20
2018-05-29T18:58:15.439Z,57.30
2018-05-29T19:00:43.811Z,57.30
2018-05-29T19:03:12.475Z,57.10
2018-05-29T19:05:40.760Z,57.10
2018-05-29T19:08:09.967Z,57.30
2018-05-29T19:10:38.262Z,57.40
2018-05-29T19:13:06.538Z,57.60
2018-05-29T19:15:34.848Z,57.60
2018-05-29T19:18:03.176Z,57.70
2018-05-29T19:20:31.523Z,58.30
2018-05-29T19:22:59.874Z,57.80
2018-05-29T19:25:28.134Z,57.40
2018-05-29T19:27:56.458Z,57.30
2018-05-29T19:30:24.863Z,57.70
2018-05-29T19:32:53.931Z,58.80
2018-05-29T19:35:22.250Z,58.80
2018-05-29T19:37:50.708Z,59.20
2018-05-29T19:40:18.979Z,59.30
2018-05-29T19:42:48.053Z,59.80
2018-05-29T19:45:16.333Z,59.80
2018-05-29T19:47:44.609Z,60.10
2018-05-29T19:50:12.905Z,60.20
2018-05-29T19:52:41.177Z,60.20
2018-05-29T19:55:09.478Z,60.60
2018-05-29T19:57:37.747Z,60.70
2018-05-29T20:00:06.018Z,60.90
2018-05-29T20:02:34.460Z,61.20
2018-05-29T20:05:02.734Z,61.30
2018-05-29T20:07:31.015Z,61.70
2018-05-29T20:09:59.379Z,61.40
2018-05-29T20:12:28.495Z,61.30
2018-05-29T20:14:56.786Z,61.20
2018-05-29T20:17:33.039Z,60.30
2018-05-29T20:20:01.372Z,60.30
2018-05-29T20:22:30.382Z,59.90
2018-05-29T20:24:58.848Z,59.90
2018-05-29T20:27:27.144Z,60.00
2018-05-29T20:29:55.436Z,60.00
2018-05-29T20:32:23.728Z,60.00
2018-05-29T20:34:52.016Z,60.30
2018-05-29T20:37:20.335Z,60.90
2018-05-29T20:39:49.402Z,60.60
2018-05-29T20:42:17.810Z,60.60
2018-05-29T20:44:46.157Z,60.80
2018-05-29T20:47:14.424Z,60.80
2018-05-29T20:49:43.680Z,60.80
2018-05-29T20:52:11.945Z,60.60
2018-05-29T20:54:40.263Z,60.60
2018-05-29T20:57:08.570Z,60.60
2018-05-29T20:59:36.840Z,60.50
2018-05-29T21:02:05.126Z,61.20
2018-05-29T21:04:33.428Z,62.00
2018-05-29T21:07:02.634Z,63.00
2018-05-29T21:09:30.911Z,63.00
2018-05-29T21:11:59.279Z,65.80
2018-05-29T21:14:27.562Z,66.30
2018-05-29T21:16:55.866Z,68.20
2018-05-29T21:19:24.325Z,68.60
2018-05-29T21:21:53.454Z,69.20
2018-05-29T21:24:21.762Z,69.20
2018-05-29T21:26:50.118Z,69.80
2018-05-29T21:29:19.362Z,70.50
2018-05-29T21:31:47.629Z,70.40
2018-05-29T21:34:15.922Z,70.90
2018-05-29T21:36:44.336Z,71.70
2018-05-29T21:39:12.630Z,72.40
2018-05-29T21:41:40.914Z,73.00
2018-05-29T21:44:09.378Z,71.90
2018-05-29T21:46:37.665Z,73.00
2018-05-29T21:49:05.937Z,74.10
2018-05-29T21:51:35.145Z,76.10
2018-05-29T21:54:04.179Z,76.00
2018-05-29T21:56:32.462Z,75.90
2018-05-29T21:59:00.807Z,75.20
2018-05-29T22:01:29.886Z,75.40
2018-05-29T22:04:03.968Z,75.40
2018-05-29T22:06:32.250Z,75.40
2018-05-29T22:09:01.288Z,77.70
2018-05-29T22:11:29.580Z,77.60
2018-05-29T22:13:57.867Z,77.60
2018-05-29T22:16:26.157Z,79.00
2018-05-29T22:18:54.462Z,80.50
2018-05-29T22:21:22.760Z,79.70
2018-05-29T22:23:51.054Z,79.40
2018-05-29T22:26:19.342Z,80.40
2018-05-29T22:28:47.639Z,81.30
2018-05-29T22:31:16.037Z,81.20
2018-05-29T22:33:44.321Z,81.30
2018-05-29T22:36:12.604Z,81.90
2018-05-29T22:38:41.045Z,81.80
2018-05-29T22:41:09.332Z,82.00
2018-05-29T22:43:37.634Z,82.50
2018-05-29T22:46:05.970Z,82.90
2018-05-29T22:48:33.546Z,83.30
2018-05-29T22:51:02.634Z,83.10
2018-05-29T22:53:30.935Z,82.90
2018-05-29T22:55:59.234Z,83.60
2018-05-29T22:58:28.271Z,83.20
2018-05-29T23:00:56.575Z,82.50
2018-05-29T23:03:24.866Z,81.80
2018-05-29T23:05:53.152Z,82.50
2018-05-29T23:08:21.436Z,83.00
2018-05-29T23:10:49.731Z,82.60
2018-05-29T23:13:18.029Z,82.40
2018-05-29T23:15:47.078Z,83.00
2018-05-29T23:18:16.123Z,82.50
2018-05-29T23:20:44.430Z,82.40
2018-05-29T23:23:12.728Z,82.80
2018-05-29T23:25:41.021Z,83.10
2018-05-29T23:28:09.306Z,83.50
2018-05-29T23:30:37.573Z,82.50
2018-05-29T23:33:05.857Z,82.00
2018-05-29T23:35:34.137Z,81.80
2018-05-29T23:38:02.435Z,82.00
2018-05-29T23:40:30.711Z,81.00
2018-05-29T23:42:59.006Z,81.80
2018-05-29T23:45:27.304Z,80.80
2018-05-29T23:47:55.631Z,80.10
2018-05-29T23:50:23.904Z,79.70
2018-05-29T23:52:52.211Z,79.80
2018-05-29T23:55:21.262Z,79.90
2018-05-29T23:57:49.549Z,79.80
